Time;durP1;ratioP1;P1;durP2;ratioP2;P2;SDS_P1;SDS_P2;PMS_P1;PMS_P2;Temp;Humidity;BMP_temperature;BMP_pressure;BME280_temperature;BME280_humidity;BME280_pressure;Samples;Min_cycle;Max_cycle;Signal;HPM_P1;HPM_P2
2022/06/03 00:00:10;;;;;;;15.27;10.52;;;;;;;-145.76;100.00;65039.31;4914298;28;22575;-72
2022/06/03 00:02:53;;;;;;;14.32;9.60;;;;;;;-145.76;100.00;65039.31;4899786;28;20041;-72
2022/06/03 00:05:40;;;;;;;13.57;8.88;;;;;;;-145.76;100.00;65039.31;4932293;28;20125;-72
2022/06/03 00:08:13;;;;;;;13.98;9.35;;;;;;;-145.76;100.00;65039.31;4917447;28;20101;-71
2022/06/03 00:10:51;;;;;;;16.92;10.93;;;;;;;-145.76;100.00;65039.31;4913323;28;20145;-72
2022/06/03 00:13:25;;;;;;;16.27;10.82;;;;;;;-145.76;100.00;65039.31;4912378;28;20644;-72
2022/06/03 00:16:18;;;;;;;19.30;10.70;;;;;;;-145.76;100.00;65039.31;4918641;28;20759;-71
2022/06/03 00:18:50;;;;;;;15.20;10.13;;;;;;;-145.76;100.00;65039.31;4885942;28;21126;-71
2022/06/03 00:21:43;;;;;;;18.30;10.45;;;;;;;-145.76;100.00;65039.31;4917310;28;20076;-72
2022/06/03 00:24:23;;;;;;;16.05;10.45;;;;;;;-145.76;100.00;65039.31;4918537;28;20672;-72
2022/06/03 00:27:16;;;;;;;15.13;10.15;;;;;;;-145.76;100.00;65039.31;4917130;28;20449;-72
2022/06/03 00:29:42;;;;;;;22.35;12.13;;;;;;;-145.76;100.00;65039.31;4913678;28;20029;-72
2022/06/03 00:32:23;;;;;;;20.38;11.18;;;;;;;-145.76;100.00;65039.31;4918279;28;20062;-72
2022/06/03 00:35:26;;;;;;;20.45;11.95;;;;;;;-145.76;100.00;65039.31;4905157;28;23628;-72
2022/06/03 00:38:04;;;;;;;19.08;12.90;;;;;;;-145.76;100.00;65039.31;4920381;28;20046;-73
2022/06/03 00:40:48;;;;;;;25.35;14.90;;;;;;;-145.76;100.00;65039.31;4916384;28;20033;-72
2022/06/03 00:43:32;;;;;;;23.52;15.05;;;;;;;-145.76;100.00;65039.31;4920088;28;20050;-72
2022/06/03 00:46:18;;;;;;;24.20;16.10;;;;;;;-145.76;100.00;65039.31;4903290;28;20460;-72
2022/06/03 00:49:01;;;;;;;28.17;15.38;;;;;;;-145.76;100.00;65039.31;4931033;28;20050;-71
2022/06/03 00:51:36;;;;;;;24.10;15.32;;;;;;;-145.76;100.00;65039.31;4903555;28;20160;-72
2022/06/03 00:54:30;;;;;;;24.13;15.00;;;;;;;-145.76;100.00;65039.31;4920456;28;20038;-71
2022/06/03 00:57:18;;;;;;;22.10;15.63;;;;;;;-145.76;100.00;65039.31;4912500;28;20034;-72
2022/06/03 00:59:56;;;;;;;24.05;14.68;;;;;;;-145.76;100.00;65039.31;4919464;28;20538;-72
2022/06/03 01:02:29;;;;;;;24.33;16.13;;;;;;;-145.76;100.00;65039.31;4910612;28;20328;-72
2022/06/03 01:05:00;;;;;;;26.20;15.60;;;;;;;-145.76;100.00;65039.31;4916085;28;20038;-73
2022/06/03 01:07:41;;;;;;;25.85;17.27;;;;;;;-145.76;100.00;65039.31;4902696;28;20092;-73
2022/06/03 01:10:24;;;;;;;23.00;15.80;;;;;;;-145.76;100.00;65039.31;4899387;28;20113;-73
2022/06/03 01:12:50;;;;;;;25.52;15.13;;;;;;;-145.76;100.00;65039.31;4915270;28;20041;-72
2022/06/03 01:15:36;;;;;;;23.70;15.52;;;;;;;-145.76;100.00;65039.31;4907684;28;20044;-72
2022/06/03 01:18:22;;;;;;;21.50;14.48;;;;;;;-145.76;100.00;65039.31;4918020;28;20038;-72
2022/06/03 01:21:06;;;;;;;24.33;14.52;;;;;;;-145.76;100.00;65039.31;4906705;28;20060;-72
2022/06/03 01:23:47;;;;;;;28.60;18.73;;;;;;;-145.76;100.00;65039.31;4917491;28;20058;-72
2022/06/03 01:26:23;;;;;;;26.88;17.92;;;;;;;-145.76;100.00;65039.31;4902600;28;20033;-72
2022/06/03 01:29:17;;;;;;;24.90;16.35;;;;;;;-145.76;100.00;65039.31;4917175;28;20505;-72
2022/06/03 01:32:17;;;;;;;23.77;14.95;;;;;;;-145.76;100.00;65039.31;4915625;28;20065;-72
2022/06/03 01:34:49;;;;;;;24.08;15.90;;;;;;;-145.76;100.00;65039.31;4903832;28;20631;-72
2022/06/03 01:37:31;;;;;;;26.08;16.63;;;;;;;-145.76;100.00;65039.31;4902217;28;20042;-72
2022/06/03 01:40:16;;;;;;;27.50;15.32;;;;;;;-145.76;100.00;65039.31;4913583;28;20042;-72
2022/06/03 01:42:44;;;;;;;20.80;15.80;;;;;;;-145.76;100.00;65039.31;4913352;28;20539;-72
2022/06/03 01:45:19;;;;;;;25.70;16.50;;;;;;;-145.76;100.00;65039.31;4918075;28;20202;-72
2022/06/03 01:48:02;;;;;;;23.55;16.00;;;;;;;-145.76;100.00;65039.31;4911537;28;20038;-72
2022/06/03 01:50:50;;;;;;;26.00;15.90;;;;;;;-145.76;100.00;65039.31;4915384;28;20045;-73
2022/06/03 01:53:33;;;;;;;23.67;15.35;;;;;;;-145.76;100.00;65039.31;4914462;28;20038;-72
2022/06/03 01:56:05;;;;;;;;;;;;;;;-145.76;100.00;65039.31;4917038;28;20038;-73
2022/06/03 01:59:03;;;;;;;27.13;16.10;;;;;;;-145.76;100.00;65039.31;4914531;28;20060;-73
2022/06/03 02:01:34;;;;;;;22.85;15.98;;;;;;;-145.76;100.00;65039.31;4916141;28;20060;-73
2022/06/03 02:04:35;;;;;;;24.08;16.05;;;;;;;-145.76;100.00;65039.31;4902970;28;20065;-74
2022/06/03 02:07:28;;;;;;;24.55;16.70;;;;;;;-145.76;100.00;65039.31;4917335;28;20080;-74
2022/06/03 02:10:40;;;;;;;25.55;16.33;;;;;;;-145.76;100.00;65039.31;4903100;28;20046;-73
2022/06/03 02:13:25;;;;;;;26.63;16.73;;;;;;;-145.76;100.00;65039.31;4917978;28;20112;-74
2022/06/03 02:15:57;;;;;;;23.38;15.05;;;;;;;-145.76;100.00;65039.31;4926899;28;20853;-73
2022/06/03 02:18:46;;;;;;;22.80;15.38;;;;;;;-145.76;100.00;65039.31;4917299;28;20033;-73
2022/06/03 02:21:35;;;;;;;26.48;16.17;;;;;;;-145.76;100.00;65039.31;4910206;28;20341;-74
2022/06/03 02:24:26;;;;;;;25.50;15.95;;;;;;;-145.76;100.00;65039.31;4915517;28;20049;-74
2022/06/03 02:27:20;;;;;;;26.02;15.20;;;;;;;-145.76;100.00;65039.31;4898815;28;20345;-74
2022/06/03 02:30:24;;;;;;;25.75;15.40;;;;;;;-145.76;100.00;65039.31;4918278;28;20029;-74
2022/06/03 02:32:58;;;;;;;;;;;;;;;-145.76;100.00;65039.31;4912431;28;20040;-73
2022/06/03 02:35:42;;;;;;;;;;;;;;;-145.76;100.00;65039.31;4916926;28;20543;-73
2022/06/03 02:38:59;;;;;;;32.50;16.05;;;;;;;-145.76;100.00;65039.31;4909957;28;20044;-73
2022/06/03 02:41:30;;;;;;;22.17;15.18;;;;;;;-145.76;100.00;65039.31;4914693;28;20044;-73
2022/06/03 02:43:59;;;;;;;28.75;16.80;;;;;;;-145.76;100.00;65039.31;4916160;28;20075;-73
2022/06/03 02:47:08;;;;;;;29.80;17.25;;;;;;;-145.76;100.00;65039.31;4917552;28;20125;-73
2022/06/03 02:49:55;;;;;;;24.75;16.30;;;;;;;-145.76;100.00;65039.31;4901434;28;23362;-73
2022/06/03 02:53:31;;;;;;;26.27;16.20;;;;;;;-145.76;100.00;65039.31;4913636;28;20034;-73
2022/06/03 02:56:10;;;;;;;24.85;16.13;;;;;;;-145.76;100.00;65039.31;4859158;28;20046;-73
2022/06/03 02:59:06;;;;;;;24.58;14.55;;;;;;;-145.76;100.00;65039.31;4896534;28;20053;-73
2022/06/03 03:02:09;;;;;;;27.73;15.63;;;;;;;-145.76;100.00;65039.31;4913632;28;20265;-73
2022/06/03 03:04:54;;;;;;;23.45;14.95;;;;;;;-145.76;100.00;65039.31;4912469;28;20069;-73
2022/06/03 03:07:57;;;;;;;22.27;15.80;;;;;;;-145.76;100.00;65039.31;4914781;28;20540;-73
2022/06/03 03:10:35;;;;;;;23.25;15.40;;;;;;;-145.76;100.00;65039.31;4896154;28;20762;-73
2022/06/03 03:13:29;;;;;;;30.50;16.20;;;;;;;-145.76;100.00;65039.31;4912246;28;20057;-73
2022/06/03 03:16:07;;;;;;;23.73;15.65;;;;;;;-145.76;100.00;65039.31;4910665;28;20042;-73
2022/06/03 03:18:57;;;;;;;30.80;15.95;;;;;;;-145.76;100.00;65039.31;4914509;28;20049;-75
2022/06/03 03:21:45;;;;;;;28.38;16.98;;;;;;;-145.76;100.00;65039.31;4906750;28;20168;-72
2022/06/03 03:24:34;;;;;;;24.83;15.38;;;;;;;-145.76;100.00;65039.31;4916527;28;20053;-73
2022/06/03 03:27:27;;;;;;;29.05;15.70;;;;;;;-145.76;100.00;65039.31;4910514;28;20044;-73
2022/06/03 03:30:20;;;;;;;26.17;15.70;;;;;;;-145.76;100.00;65039.31;4916746;28;20128;-73
2022/06/03 03:33:19;;;;;;;25.50;16.15;;;;;;;-145.76;100.00;65039.31;4916670;28;20144;-73
2022/06/03 03:36:22;;;;;;;26.23;17.35;;;;;;;-145.76;100.00;65039.31;4931328;28;20038;-74
2022/06/03 03:39:32;;;;;;;27.98;17.00;;;;;;;-145.76;100.00;65039.31;4901388;28;20034;-73
2022/06/03 03:42:35;;;;;;;25.25;16.55;;;;;;;-145.76;100.00;65039.31;4911454;28;20764;-73
2022/06/03 03:45:19;;;;;;;24.20;16.45;;;;;;;-145.76;100.00;65039.31;4899943;28;20135;-73
2022/06/03 03:48:11;;;;;;;25.30;17.63;;;;;;;-145.76;100.00;65039.31;4916639;28;22476;-73
2022/06/03 03:50:46;;;;;;;36.03;19.55;;;;;;;-145.76;100.00;65039.31;4888608;28;20781;-73
2022/06/03 03:53:29;;;;;;;30.48;19.48;;;;;;;-145.76;100.00;65039.31;4915541;28;20042;-73
2022/06/03 03:56:12;;;;;;;33.70;19.50;;;;;;;-145.76;100.00;65039.31;4906606;28;20049;-73
2022/06/03 03:59:16;;;;;;;30.10;17.05;;;;;;;-145.76;100.00;65039.31;4917105;28;20366;-73
2022/06/03 04:02:10;;;;;;;35.33;20.70;;;;;;;-145.76;100.00;65039.31;4902929;28;20081;-74
2022/06/03 04:05:09;;;;;;;31.17;19.95;;;;;;;-145.76;100.00;65039.31;4925000;28;20077;-73
2022/06/03 04:07:53;;;;;;;30.60;18.95;;;;;;;-145.76;100.00;65039.31;4914729;28;20088;-72
2022/06/03 04:10:26;;;;;;;;;;;;;;;-145.76;100.00;65039.31;4923479;28;20037;-74
2022/06/03 04:12:57;;;;;;;32.75;19.88;;;;;;;-145.76;100.00;65039.31;4908397;28;20036;-73
2022/06/03 04:15:50;;;;;;;48.75;24.77;;;;;;;-145.76;100.00;65039.31;4923334;28;20038;-73
2022/06/03 04:18:51;;;;;;;43.38;26.60;;;;;;;-145.76;100.00;65039.31;4878310;28;20046;-73
2022/06/03 04:22:05;;;;;;;43.15;24.75;;;;;;;-145.76;100.00;65039.31;4882879;28;20146;-73
2022/06/03 04:24:40;;;;;;;34.43;21.70;;;;;;;-145.76;100.00;65039.31;4917240;28;20053;-73
2022/06/03 04:27:44;;;;;;;33.08;22.40;;;;;;;-145.76;100.00;65039.31;4922505;28;20165;-73
2022/06/03 04:30:32;;;;;;;;;;;;;;;-145.76;100.00;65039.31;4919884;28;20050;-73
2022/06/03 04:33:32;;;;;;;37.13;19.23;;;;;;;-145.76;100.00;65039.31;4916955;28;20227;-73
2022/06/03 04:36:24;;;;;;;28.42;21.02;;;;;;;-145.76;100.00;65039.31;4908491;28;20510;-73
2022/06/03 04:39:09;;;;;;;27.00;18.55;;;;;;;-145.76;100.00;65039.31;4886876;28;20042;-73
2022/06/03 04:42:06;;;;;;;34.72;17.67;;;;;;;-145.76;100.00;65039.31;4923171;28;20038;-73
2022/06/03 04:44:34;;;;;;;30.65;16.17;;;;;;;-145.76;100.00;65039.31;4904328;28;20065;-73
2022/06/03 04:47:08;;;;;;;23.65;16.45;;;;;;;-145.76;100.00;65039.31;4920351;28;20116;-73
2022/06/03 04:50:10;;;;;;;26.42;15.95;;;;;;;-145.76;100.00;65039.31;4916679;28;20053;-73
2022/06/03 04:53:08;;;;;;;21.30;15.52;;;;;;;-145.76;100.00;65039.31;4920579;28;20046;-73
2022/06/03 04:56:10;;;;;;;18.77;13.98;;;;;;;-145.76;100.00;65039.31;4897501;28;20089;-72
2022/06/03 04:59:18;;;;;;;23.00;14.50;;;;;;;-145.76;100.00;65039.31;4920454;28;20038;-72
2022/06/03 05:02:21;;;;;;;26.77;13.68;;;;;;;-145.76;100.00;65039.31;4902907;28;20061;-72
2022/06/03 05:05:17;;;;;;;18.20;12.63;;;;;;;-145.76;100.00;65039.31;4920760;28;20053;-72
2022/06/03 05:08:07;;;;;;;23.98;12.57;;;;;;;-145.76;100.00;65039.31;4906726;28;20046;-73
2022/06/03 05:10:54;;;;;;;21.95;13.57;;;;;;;-145.76;100.00;65039.31;4921945;28;20657;-72
2022/06/03 05:13:29;;;;;;;18.77;11.77;;;;;;;-145.76;100.00;65039.31;4904066;28;20073;-72
2022/06/03 05:16:32;;;;;;;12.90;10.85;;;;;;;-145.76;100.00;65039.31;4919603;28;20042;-72
2022/06/03 05:18:58;;;;;;;11.48;7.63;;;;;;;-145.76;100.00;65039.31;4917394;28;20083;-72
2022/06/03 05:21:48;;;;;;;13.90;6.47;;;;;;;-145.76;100.00;65039.31;4920240;28;20055;-72
2022/06/03 05:24:40;;;;;;;12.20;6.40;;;;;;;-145.76;100.00;65039.31;4905222;28;20556;-72
2022/06/03 05:27:14;;;;;;;12.05;5.60;;;;;;;-145.76;100.00;65039.31;4916748;28;20034;-72
2022/06/03 05:29:55;;;;;;;8.55;5.22;;;;;;;-145.76;100.00;65039.31;4905243;28;20639;-72
2022/06/03 05:32:20;;;;;;;11.40;5.43;;;;;;;-145.76;100.00;65039.31;4921459;28;20086;-72
2022/06/03 05:35:23;;;;;;;8.43;5.05;;;;;;;-145.76;100.00;65039.31;4906395;28;20882;-72
2022/06/03 05:38:16;;;;;;;9.90;4.68;;;;;;;-145.76;100.00;65039.31;4919370;28;20057;-72
2022/06/03 05:41:00;;;;;;;13.77;4.95;;;;;;;-145.76;100.00;65039.31;4905722;28;20193;-72
2022/06/03 05:44:08;;;;;;;11.15;4.25;;;;;;;-145.76;100.00;65039.31;4922615;28;20185;-72
2022/06/03 05:46:48;;;;;;;12.38;4.10;;;;;;;-145.76;100.00;65039.31;4900922;28;20041;-72
2022/06/03 05:49:13;;;;;;;7.95;3.90;;;;;;;-145.76;100.00;65039.31;4921506;28;20041;-72
2022/06/03 05:52:02;;;;;;;8.30;4.07;;;;;;;-145.76;100.00;65039.31;4907463;28;21162;-72
2022/06/03 05:54:48;;;;;;;7.43;3.85;;;;;;;-145.76;100.00;65039.31;4904332;28;20039;-72
2022/06/03 05:57:38;;;;;;;8.25;3.72;;;;;;;-145.76;100.00;65039.31;4904758;28;20038;-71
2022/06/03 06:00:12;;;;;;;6.25;3.00;;;;;;;-145.76;100.00;65039.31;4922634;28;20144;-72
2022/06/03 06:02:46;;;;;;;7.00;2.67;;;;;;;-145.76;100.00;65039.31;4903630;28;21057;-72
2022/06/03 06:05:29;;;;;;;7.55;2.83;;;;;;;-145.76;100.00;65039.31;4921522;28;20135;-72
2022/06/03 06:08:29;;;;;;;5.72;2.85;;;;;;;-145.76;100.00;65039.31;4905614;28;20045;-72
2022/06/03 06:11:03;;;;;;;5.10;2.90;;;;;;;-145.76;100.00;65039.31;4921801;28;20050;-72
2022/06/03 06:13:54;;;;;;;8.88;2.80;;;;;;;-145.76;100.00;65039.31;4902387;28;20112;-72
2022/06/03 06:16:46;;;;;;;9.32;3.00;;;;;;;-145.76;100.00;65039.31;4918113;28;20034;-71
2022/06/03 06:19:34;;;;;;;5.93;2.33;;;;;;;-145.76;100.00;65039.31;4895024;28;20054;-72
2022/06/03 06:22:19;;;;;;;9.52;3.38;;;;;;;-145.76;100.00;65039.31;4934939;28;20045;-72
2022/06/03 06:25:06;;;;;;;9.52;2.38;;;;;;;-145.76;100.00;65039.31;4905806;28;21501;-72
2022/06/03 06:27:31;;;;;;;10.60;2.70;;;;;;;-145.76;100.00;65039.31;4918155;28;20038;-72
2022/06/03 06:30:19;;;;;;;7.80;2.42;;;;;;;-145.76;100.00;65039.31;4903590;28;20050;-73
2022/06/03 06:33:14;;;;;;;4.47;2.15;;;;;;;-145.76;100.00;65039.31;4913540;28;20133;-72
2022/06/03 06:36:37;;;;;;;8.38;2.10;;;;;;;-145.76;100.00;65039.31;4904019;28;20160;-72
2022/06/03 06:39:11;;;;;;;6.03;2.05;;;;;;;-145.76;100.00;65039.31;4856973;28;20249;-72
2022/06/03 06:42:38;;;;;;;6.22;2.40;;;;;;;-145.76;100.00;65039.31;4901868;28;20058;-72
2022/06/03 06:45:10;;;;;;;5.70;1.90;;;;;;;-145.76;100.00;65039.31;4915157;28;20660;-72
2022/06/03 06:47:55;;;;;;;5.63;1.67;;;;;;;-145.76;100.00;65039.31;4889388;28;20038;-72
2022/06/03 06:50:32;;;;;;;6.40;1.95;;;;;;;-145.76;100.00;65039.31;4917375;28;20152;-72
2022/06/03 06:53:06;;;;;;;9.98;2.20;;;;;;;-145.76;100.00;65039.31;4920264;28;20099;-72
2022/06/03 06:56:09;;;;;;;6.18;2.10;;;;;;;-145.76;100.00;65039.31;4917857;28;20069;-72
2022/06/03 06:58:42;;;;;;;5.43;1.75;;;;;;;-145.76;100.00;65039.31;4902158;28;20141;-72
2022/06/03 07:01:08;;;;;;;3.25;1.63;;;;;;;-145.76;100.00;65039.31;4917745;28;20149;-72
2022/06/03 07:03:43;;;;;;;4.97;1.50;;;;;;;-145.76;100.00;65039.31;4904057;28;20101;-73
2022/06/03 07:06:15;;;;;;;4.45;1.60;;;;;;;-145.76;100.00;65039.31;4926619;28;20034;-72
2022/06/03 07:08:56;;;;;;;4.55;1.33;;;;;;;-145.76;100.00;65039.31;4896826;28;20074;-72
2022/06/03 07:11:31;;;;;;;1.85;0.80;;;;;;;-145.76;100.00;65039.31;4936057;28;20053;-72
2022/06/03 07:14:00;;;;;;;6.60;1.73;;;;;;;-145.76;100.00;65039.31;4921016;28;20042;-72
2022/06/03 07:19:49;;;;;;;5.22;2.05;;;;;;;-145.76;100.00;65039.31;4917785;28;20173;-72
2022/06/03 07:22:22;;;;;;;7.32;1.83;;;;;;;-145.76;100.00;65039.31;4915094;28;20050;-72
2022/06/03 07:24:58;;;;;;;6.32;1.42;;;;;;;-145.76;100.00;65039.31;4913379;28;20117;-72
2022/06/03 07:27:42;;;;;;;4.53;1.48;;;;;;;-145.76;100.00;65039.31;4897904;28;20087;-72
2022/06/03 07:30:12;;;;;;;4.22;1.33;;;;;;;-145.76;100.00;65039.31;4918811;28;20081;-72
2022/06/03 07:32:51;;;;;;;4.10;1.25;;;;;;;-145.76;100.00;65039.31;4916336;28;20040;-72
2022/06/03 07:35:25;;;;;;;5.75;1.80;;;;;;;-145.76;100.00;65039.31;4913137;28;20037;-72
2022/06/03 07:38:03;;;;;;;5.63;1.40;;;;;;;-145.76;100.00;65039.31;4900708;28;20038;-72
2022/06/03 07:40:39;;;;;;;4.88;1.75;;;;;;;-145.76;100.00;65039.31;4916543;28;20127;-72
2022/06/03 07:43:12;;;;;;;4.75;1.25;;;;;;;-145.76;100.00;65039.31;4901019;28;20047;-72
2022/06/03 07:45:45;;;;;;;;;;;;;;;-145.76;100.00;65039.31;4917122;28;20119;-72
2022/06/03 07:48:21;;;;;;;5.50;1.38;;;;;;;-145.76;100.00;65039.31;4900429;28;19926;-72
2022/06/03 07:50:53;;;;;;;4.65;2.10;;;;;;;-145.76;100.00;65039.31;4935586;28;20041;-72
2022/06/03 07:53:27;;;;;;;8.27;2.42;;;;;;;-145.76;100.00;65039.31;4901002;28;20042;-72
2022/06/03 07:55:55;;;;;;;7.07;2.85;;;;;;;-145.76;100.00;65039.31;4914559;28;20570;-71
2022/06/03 07:58:22;;;;;;;6.75;2.40;;;;;;;-145.76;100.00;65039.31;4895819;28;20585;-71
2022/06/03 08:00:48;;;;;;;3.80;2.15;;;;;;;-145.76;100.00;65039.31;4931770;28;20164;-72
2022/06/03 08:03:21;;;;;;;4.35;1.90;;;;;;;-145.76;100.00;65039.31;4899114;28;20054;-71
2022/06/03 08:05:51;;;;;;;3.63;1.90;;;;;;;-145.76;100.00;65039.31;4903036;28;20041;-71
2022/06/03 08:11:18;;;;;;;6.28;2.33;;;;;;;-145.76;100.00;65039.31;4900154;28;20042;-72
2022/06/03 08:13:52;;;;;;;4.43;1.75;;;;;;;-145.76;100.00;65039.31;4919836;28;20037;-71
2022/06/03 08:16:23;;;;;;;4.82;1.83;;;;;;;-145.76;100.00;65039.31;4903999;28;20044;-72
2022/06/03 08:18:49;;;;;;;5.65;2.15;;;;;;;-145.76;100.00;65039.31;4917319;28;20026;-72
2022/06/03 08:21:28;;;;;;;3.80;1.80;;;;;;;-145.76;100.00;65039.31;4886204;28;20619;-71
2022/06/03 08:23:54;;;;;;;4.45;1.98;;;;;;;-145.76;100.00;65039.31;4918345;28;20184;-71
2022/06/03 08:26:22;;;;;;;4.53;1.73;;;;;;;-145.76;100.00;65039.31;4899344;28;20034;-73
2022/06/03 08:28:53;;;;;;;3.97;1.50;;;;;;;-145.76;100.00;65039.31;4917829;28;20179;-72
2022/06/03 08:31:22;;;;;;;4.85;2.13;;;;;;;-145.76;100.00;65039.31;4918025;28;20049;-71
2022/06/03 08:33:59;;;;;;;3.42;1.52;;;;;;;-145.76;100.00;65039.31;4903051;28;20045;-71
2022/06/03 08:36:29;;;;;;;3.75;1.52;;;;;;;-145.76;100.00;65039.31;4916435;28;20049;-71
2022/06/03 08:39:02;;;;;;;5.05;1.77;;;;;;;-145.76;100.00;65039.31;4904615;28;21132;-72
2022/06/03 08:41:55;;;;;;;3.40;1.70;;;;;;;-145.76;100.00;65039.31;4923566;28;20160;-72
2022/06/03 08:44:46;;;;;;;7.28;1.30;;;;;;;-145.76;100.00;65039.31;4905907;28;20577;-72
2022/06/03 08:47:21;;;;;;;3.28;1.30;;;;;;;-145.76;100.00;65039.31;4923374;28;20042;-72
2022/06/03 08:49:56;;;;;;;5.57;1.35;;;;;;;-145.76;100.00;65039.31;4904596;28;20045;-72
2022/06/03 08:52:26;;;;;;;5.22;1.63;;;;;;;-145.76;100.00;65039.31;4933087;28;20037;-72
2022/06/03 08:54:54;;;;;;;8.18;1.70;;;;;;;-145.76;100.00;65039.31;4919976;28;20047;-72
2022/06/03 08:57:41;;;;;;;4.53;1.55;;;;;;;-145.76;100.00;65039.31;4919870;28;20042;-72
2022/06/03 09:00:12;;;;;;;3.47;1.40;;;;;;;-145.76;100.00;65039.31;4901869;28;20061;-72
2022/06/03 09:03:22;;;;;;;5.03;1.55;;;;;;;-145.76;100.00;65039.31;4936140;28;20726;-72
2022/06/03 09:06:11;;;;;;;4.18;1.73;;;;;;;-145.76;100.00;65039.31;4894158;28;20084;-72
2022/06/03 09:08:41;;;;;;;3.78;1.55;;;;;;;-145.76;100.00;65039.31;4922947;28;20174;-71
2022/06/03 09:11:13;;;;;;;4.45;1.45;;;;;;;-145.76;100.00;65039.31;4905001;28;20046;-72
2022/06/03 09:13:40;;;;;;;3.17;1.40;;;;;;;-145.76;100.00;65039.31;4921346;28;20140;-72
2022/06/03 09:16:08;;;;;;;3.20;1.35;;;;;;;-145.76;100.00;65039.31;4914846;28;20034;-73
2022/06/03 09:18:36;;;;;;;4.60;2.30;;;;;;;-145.76;100.00;65039.31;4908855;28;20394;-72
2022/06/03 09:21:09;;;;;;;6.50;1.67;;;;;;;-145.76;100.00;65039.31;4918283;28;20609;-72
2022/06/03 09:23:40;;;;;;;2.45;1.33;;;;;;;-145.76;100.00;65039.31;4901533;28;20288;-72
2022/06/03 09:26:13;;;;;;;4.60;1.52;;;;;;;-145.76;100.00;65039.31;4921720;28;20064;-72
2022/06/03 09:28:38;;;;;;;3.97;1.92;;;;;;;-145.76;100.00;65039.31;4903461;28;20046;-72
2022/06/03 09:31:09;;;;;;;5.10;1.83;;;;;;;-145.76;100.00;65039.31;4922515;28;20030;-73
2022/06/03 09:33:36;;;;;;;4.82;1.67;;;;;;;-145.76;100.00;65039.31;4887889;28;20053;-72
2022/06/03 09:36:05;;;;;;;3.53;1.83;;;;;;;-145.76;100.00;65039.31;4922061;28;20062;-73
2022/06/03 09:38:43;;;;;;;3.42;1.40;;;;;;;-145.76;100.00;65039.31;4904655;28;20057;-72
2022/06/03 09:41:09;;;;;;;2.95;1.30;;;;;;;-145.76;100.00;65039.31;4921349;28;20078;-72
2022/06/03 09:43:38;;;;;;;3.60;1.50;;;;;;;-145.76;100.00;65039.31;4920334;28;20196;-72
2022/06/03 09:46:05;;;;;;;3.67;1.92;;;;;;;-145.76;100.00;65039.31;4909858;28;20191;-73
2022/06/03 09:48:34;;;;;;;6.47;1.95;;;;;;;-145.76;100.00;65039.31;4936871;28;20046;-73
2022/06/03 09:54:12;;;;;;;4.10;1.90;;;;;;;-145.76;100.00;65039.31;4919301;28;20033;-72
2022/06/03 09:56:38;;;;;;;8.93;2.22;;;;;;;-145.76;100.00;65039.31;4906734;28;20955;-72
2022/06/03 09:59:04;;;;;;;3.05;2.08;;;;;;;-145.76;100.00;65039.31;4923638;28;20061;-72
2022/06/03 10:01:30;;;;;;;4.70;2.22;;;;;;;-145.76;100.00;65039.31;4906314;28;20053;-73
2022/06/03 10:03:59;;;;;;;4.82;2.17;;;;;;;-145.76;100.00;65039.31;4920852;28;20054;-72
2022/06/03 10:06:46;;;;;;;3.63;2.13;;;;;;;-145.76;100.00;65039.31;4900510;28;20058;-72
2022/06/03 10:17:47;;;;;;;3.47;1.98;;;;;;;-145.76;100.00;65039.31;4905505;28;20053;-72
2022/06/03 10:20:13;;;;;;;3.03;1.90;;;;;;;-145.76;100.00;65039.31;4922097;28;20035;-72
2022/06/03 10:22:40;;;;;;;4.40;1.75;;;;;;;-145.76;100.00;65039.31;4915866;28;20157;-73
2022/06/03 10:25:07;;;;;;;5.25;2.38;;;;;;;-145.76;100.00;65039.31;4909305;28;20056;-72
2022/06/03 10:27:33;;;;;;;2.90;1.75;;;;;;;-145.76;100.00;65039.31;4918418;28;20120;-73
2022/06/03 10:29:59;;;;;;;3.10;2.00;;;;;;;-145.76;100.00;65039.31;4903490;28;20714;-72
2022/06/03 10:32:25;;;;;;;5.30;1.80;;;;;;;-145.76;100.00;65039.31;4934290;28;20042;-72
2022/06/03 10:34:50;;;;;;;2.60;1.85;;;;;;;-145.76;100.00;65039.31;4902581;28;21070;-72
2022/06/03 10:37:23;;;;;;;4.88;2.00;;;;;;;-145.76;100.00;65039.31;4932994;28;23239;-73
2022/06/03 10:39:49;;;;;;;;;;;;;;;-145.76;100.00;65039.31;4902666;28;20185;-72
2022/06/03 10:42:19;;;;;;;3.85;1.80;;;;;;;-145.76;100.00;65039.31;4930254;28;20031;-72
2022/06/03 10:44:50;;;;;;;4.53;2.10;;;;;;;-145.76;100.00;65039.31;4912373;28;20057;-72
2022/06/03 10:47:19;;;;;;;4.82;2.47;;;;;;;-145.76;100.00;65039.31;4899739;28;20037;-73
2022/06/03 10:49:54;;;;;;;5.72;1.98;;;;;;;-145.76;100.00;65039.31;4919011;28;20045;-72
2022/06/03 11:01:07;;;;;;;4.80;2.20;;;;;;;-145.76;100.00;65039.31;4920455;28;20034;-72
2022/06/03 11:03:35;;;;;;;6.05;2.20;;;;;;;-145.76;100.00;65039.31;4907162;28;20057;-71
2022/06/03 11:06:15;;;;;;;4.80;2.30;;;;;;;-145.76;100.00;65039.31;4933437;28;20160;-73
2022/06/03 11:08:51;;;;;;;4.93;2.30;;;;;;;-145.76;100.00;65039.31;4904927;28;20046;-73
2022/06/03 11:11:34;;;;;;;4.30;2.13;;;;;;;-145.76;100.00;65039.31;4920977;28;20046;-73
2022/06/03 11:14:39;;;;;;;6.53;2.30;;;;;;;-145.76;100.00;65039.31;4904910;28;20096;-73
2022/06/03 11:17:23;;;;;;;5.07;2.33;;;;;;;-145.76;100.00;65039.31;4865331;28;20510;-73
2022/06/03 11:19:54;;;;;;;5.10;2.40;;;;;;;-145.76;100.00;65039.31;4901115;28;20042;-73
2022/06/03 11:22:36;;;;;;;3.75;2.05;;;;;;;-145.76;100.00;65039.31;4931862;28;20054;-73
2022/06/03 11:25:19;;;;;;;5.53;1.92;;;;;;;-145.76;100.00;65039.31;4900635;28;20069;-73
2022/06/03 11:27:50;;;;;;;5.07;2.17;;;;;;;-145.76;100.00;65039.31;4919441;28;20105;-73
2022/06/03 11:30:54;;;;;;;3.75;1.90;;;;;;;-145.76;100.00;65039.31;4895745;28;20129;-72
2022/06/03 11:33:31;;;;;;;4.68;1.90;;;;;;;-145.76;100.00;65039.31;4917488;28;20034;-73
2022/06/03 11:36:03;;;;;;;4.47;1.75;;;;;;;-145.76;100.00;65039.31;4905088;28;20133;-73
2022/06/03 11:38:40;;;;;;;4.15;1.92;;;;;;;-145.76;100.00;65039.31;4919147;28;20042;-73
2022/06/03 11:41:11;;;;;;;5.93;2.08;;;;;;;-145.76;100.00;65039.31;4931088;28;20068;-73
2022/06/03 11:44:08;;;;;;;4.90;2.28;;;;;;;-145.76;100.00;65039.31;4917350;28;20045;-73
2022/06/03 11:46:41;;;;;;;4.28;2.13;;;;;;;-145.76;100.00;65039.31;4898552;28;20069;-73
2022/06/03 11:49:07;;;;;;;4.88;1.90;;;;;;;-145.76;100.00;65039.31;4903483;28;20368;-73
2022/06/03 11:51:34;;;;;;;9.88;2.60;;;;;;;-145.76;100.00;65039.31;4912622;28;20087;-73
2022/06/03 11:54:01;;;;;;;4.13;1.88;;;;;;;-145.76;100.00;65039.31;4910402;28;20172;-73
2022/06/03 11:56:30;;;;;;;5.82;1.83;;;;;;;-145.76;100.00;65039.31;4918963;28;20054;-74
2022/06/03 11:59:06;;;;;;;4.20;2.10;;;;;;;-145.76;100.00;65039.31;4902864;28;20039;-73
2022/06/03 12:01:42;;;;;;;4.68;2.30;;;;;;;-145.76;100.00;65039.31;4919931;28;20045;-73
2022/06/03 12:04:40;;;;;;;3.40;1.83;;;;;;;-145.76;100.00;65039.31;4904391;28;20128;-72
2022/06/03 12:07:28;;;;;;;4.10;1.85;;;;;;;-145.76;100.00;65039.31;4910966;28;20054;-73
2022/06/03 12:10:02;;;;;;;5.00;1.65;;;;;;;-145.76;100.00;65039.31;4904469;28;20064;-73
2022/06/03 12:15:45;;;;;;;3.78;2.00;;;;;;;-145.76;100.00;65039.31;4892767;28;20990;-73
2022/06/03 12:18:10;;;;;;;3.85;1.83;;;;;;;-145.76;100.00;65039.31;4893567;28;20026;-73
2022/06/03 12:20:50;;;;;;;3.90;2.20;;;;;;;-145.76;100.00;65039.31;4908416;28;20176;-71
2022/06/03 12:23:15;;;;;;;2.47;1.17;;;;;;;-145.76;100.00;65039.31;4924977;28;20038;-72
2022/06/03 12:25:40;;;;;;;6.55;2.00;;;;;;;-145.76;100.00;65039.31;4906975;28;20046;-72
2022/06/03 12:28:26;;;;;;;4.15;1.90;;;;;;;-145.76;100.00;65039.31;4922126;28;20045;-71
2022/06/03 12:30:54;;;;;;;3.58;1.73;;;;;;;-145.76;100.00;65039.31;4906647;28;20050;-72
2022/06/03 12:33:28;;;;;;;5.50;2.13;;;;;;;-145.76;100.00;65039.31;4919542;28;20069;-72
2022/06/03 12:35:59;;;;;;;7.07;2.13;;;;;;;-145.76;100.00;65039.31;4916042;28;20041;-72